PWSweather.com
Personal Weather Stations
Station Observations
WISCHPK61
Green Bay Schmitt Park, Green Bay, WI 54311

Green Bay Schmitt ParkGreen Bay, WI 54311

Lat: 44.514277, Lon: -87.935067

Elevation: 735

Station Type: Acu Rite Pro Weather Center model 02032C

http://greenbayweathercam.com

High Low Average
Temperature 72.9°F22.7°C 56.3°F13.5°C 63.8°F17.7°C
Dew Point 72.6°F22.6°C 53.8°F12.1°C 63.2°F17.3°C
Winds Calm Calm Calm Calm Calm SCalm S
Wind Gusts -- -- --
Humidity 99% 89% 98%
Pressure 29.27 in991.2 mb 29.14 in986.8 mb -
Precipitation 0.67 in17.0 mm - -
Hour Temp Dew Point Humidity Winds Wind Gusts Pressure Precip Precip Rate Daily Precip Total
12:00 AM 57.9°F14.4°C 57.6°F14.2°C 99% Calm Calm -- 29.28 in991.5 mb - 0.00 in0.0 mm 0.00 in0.0 mm
01:00 AM 57.0°F13.9°C 53.8°F12.1°C 89% Calm Calm -- 29.27 in991.2 mb - 0.00 in0.0 mm 0.00 in0.0 mm
02:00 AM 56.3°F13.5°C 56.0°F13.3°C 99% Calm Calm -- 29.27 in991.2 mb - 0.00 in0.0 mm 0.00 in0.0 mm
03:00 AM 56.3°F13.5°C 56.0°F13.3°C 99% Calm Calm -- 29.26 in990.9 mb - 0.00 in0.0 mm 0.00 in0.0 mm
04:00 AM 56.7°F13.7°C 56.4°F13.6°C 99% Calm Calm -- 29.25 in990.5 mb - 0.00 in0.0 mm 0.00 in0.0 mm
05:00 AM 57.7°F14.3°C 57.4°F14.1°C 99% Calm Calm -- 29.25 in990.5 mb - 0.00 in0.0 mm 0.00 in0.0 mm
06:00 AM 58.5°F14.7°C 58.2°F14.6°C 99% Calm Calm -- 29.25 in990.5 mb - 0.00 in0.0 mm 0.00 in0.0 mm
07:00 AM 59.0°F15.0°C 58.4°F14.7°C 98% Calm Calm -- 29.25 in990.5 mb - 0.00 in0.0 mm 0.00 in0.0 mm
08:00 AM 60.4°F15.8°C 60.1°F15.6°C 99% Calm Calm -- 29.25 in990.5 mb - 0.00 in0.0 mm 0.00 in0.0 mm
09:00 AM 63.1°F17.3°C 62.8°F17.1°C 99% Calm Calm -- 29.23 in989.8 mb - 0.00 in0.0 mm 0.00 in0.0 mm
10:00 AM 66.5°F19.2°C 63.5°F17.5°C 90% Calm Calm -- 29.23 in989.8 mb - 0.00 in0.0 mm 0.00 in0.0 mm
11:00 AM 72.7°F22.6°C 72.4°F22.4°C 99% Calm Calm -- 29.23 in989.8 mb - 0.00 in0.0 mm 0.00 in0.0 mm
12:00 PM 72.9°F22.7°C 72.6°F22.6°C 99% Calm Calm -- 29.23 in989.8 mb - 0.00 in0.0 mm 0.00 in0.0 mm
01:00 PM 72.3°F22.4°C 72.0°F22.2°C 99% Calm Calm -- 29.21 in989.2 mb - 0.00 in0.0 mm 0.00 in0.0 mm
02:00 PM 69.3°F20.7°C 69.0°F20.6°C 99% Calm Calm -- 29.20 in988.8 mb - 0.00 in0.0 mm 0.00 in0.0 mm
03:00 PM 68.5°F20.3°C 68.2°F20.1°C 99% Calm Calm -- 29.19 in988.5 mb - 0.00 in0.0 mm 0.00 in0.0 mm
04:00 PM 65.5°F18.6°C 65.2°F18.4°C 99% Calm Calm -- 29.18 in988.1 mb - 0.67 in17.0 mm 0.67 in17.0 mm
05:00 PM 66.7°F19.3°C 66.4°F19.1°C 99% Calm Calm -- 29.16 in987.5 mb - 0.00 in0.0 mm 0.67 in17.0 mm
06:00 PM 66.9°F19.4°C 66.6°F19.2°C 99% Calm Calm -- 29.15 in987.1 mb - 0.00 in0.0 mm 0.67 in17.0 mm
07:00 PM 67.1°F19.5°C 66.8°F19.3°C 99% Calm Calm -- 29.15 in987.1 mb - 0.00 in0.0 mm 0.67 in17.0 mm
08:00 PM 66.2°F19.0°C 65.9°F18.8°C 99% Calm Calm -- 29.15 in987.1 mb - 0.00 in0.0 mm 0.67 in17.0 mm
09:00 PM 64.6°F18.1°C 64.3°F17.9°C 99% Calm Calm -- 29.14 in986.8 mb - 0.00 in0.0 mm 0.67 in17.0 mm
10:00 PM 63.5°F17.5°C 63.2°F17.3°C 99% Calm Calm -- 29.15 in987.1 mb - 0.00 in0.0 mm 0.67 in17.0 mm
11:00 PM 62.2°F16.8°C 61.9°F16.6°C 99% Calm Calm -- 29.16 in987.5 mb - 0.00 in0.0 mm 0.67 in17.0 mm